Time;durP1;ratioP1;P1;durP2;ratioP2;P2;SDS_P1;SDS_P2;PMS_P1;PMS_P2;Temp;Humidity;BMP_temperature;BMP_pressure;BME280_temperature;BME280_humidity;BME280_pressure;Samples;Min_cycle;Max_cycle;Signal;HPM_P1;HPM_P2
2021/09/12 04:32:40;;;;;;;4.60;4.20;;;11.70;99.90;;;;;;5245485;23;20535;-74
2021/09/12 04:35:06;;;;;;;4.20;3.90;;;11.70;99.90;;;;;;5038659;28;20486;-74
2021/09/12 04:37:31;;;;;;;5.47;4.37;;;11.70;99.90;;;;;;5051457;28;20617;-74
2021/09/12 04:39:57;;;;;;;4.50;4.10;;;11.70;99.90;;;;;;5053008;28;20209;-74
2021/09/12 04:42:22;;;;;;;7.43;3.73;;;11.60;99.90;;;;;;5062184;28;20188;-75
2021/09/12 04:44:48;;;;;;;4.73;4.40;;;11.60;99.90;;;;;;5072811;28;20208;-74
2021/09/12 04:47:13;;;;;;;3.67;3.37;;;11.60;99.90;;;;;;5072589;28;20532;-75
2021/09/12 04:49:40;;;;;;;4.10;3.80;;;11.60;99.90;;;;;;5055107;28;20176;-75
2021/09/12 04:52:06;;;;;;;3.90;3.60;;;11.60;99.90;;;;;;5072330;28;20208;-74
2021/09/12 04:54:31;;;;;;;4.43;3.67;;;11.60;99.90;;;;;;5063584;28;20969;-74
2021/09/12 04:56:57;;;;;;;4.53;4.13;;;11.60;99.90;;;;;;5052861;28;20560;-75
2021/09/12 04:59:23;;;;;;;5.87;5.37;;;11.60;99.90;;;;;;5052241;28;20181;-75
2021/09/12 05:01:48;;;;;;;5.87;4.50;;;11.60;99.90;;;;;;5051508;28;20193;-75
2021/09/12 05:04:14;;;;;;;4.67;4.20;;;11.60;99.90;;;;;;5052703;28;20205;-74
2021/09/12 05:06:39;;;;;;;8.43;4.07;;;11.50;99.90;;;;;;5052770;28;20540;-75
2021/09/12 05:09:05;;;;;;;4.90;4.00;;;11.50;99.90;;;;;;5052089;28;20190;-75
2021/09/12 05:11:30;;;;;;;4.70;4.00;;;11.60;99.90;;;;;;5051133;28;20205;-74
2021/09/12 05:13:56;;;;;;;4.97;3.00;;;11.60;99.90;;;;;;5052176;28;20689;-75
2021/09/12 05:16:21;;;;;;;3.97;3.67;;;11.60;99.90;;;;;;5052523;28;20189;-75
2021/09/12 05:18:50;;;;;;;3.77;3.57;;;11.60;99.90;;;;;;5051794;28;20172;-76
2021/09/12 05:21:16;;;;;;;5.57;4.20;;;11.60;99.90;;;;;;5051959;28;20558;-77
2021/09/12 05:23:41;;;;;;;4.50;4.10;;;11.60;99.90;;;;;;5050645;28;20427;-76
2021/09/12 05:26:07;;;;;;;5.23;4.00;;;11.70;99.90;;;;;;5052219;28;20177;-76
2021/09/12 05:28:34;;;;;;;5.53;4.47;;;11.70;99.90;;;;;;5052175;28;20578;-76
2021/09/12 05:30:59;;;;;;;4.50;4.10;;;11.80;99.90;;;;;;5060107;28;20234;-77
2021/09/12 05:33:25;;;;;;;3.30;3.00;;;11.80;99.90;;;;;;5071867;28;20419;-76
2021/09/12 05:35:50;;;;;;;4.80;4.30;;;11.80;99.90;;;;;;5054216;28;20180;-76
2021/09/12 05:38:16;;;;;;;4.63;4.23;;;11.90;99.90;;;;;;5071958;28;20204;-76
2021/09/12 05:40:41;;;;;;;4.33;4.00;;;12.00;99.90;;;;;;5071878;28;20205;-76
2021/09/12 05:43:07;;;;;;;4.67;3.80;;;12.00;99.90;;;;;;5070790;28;20203;-76
2021/09/12 05:45:33;;;;;;;4.30;3.90;;;12.10;99.90;;;;;;5071698;28;20196;-76
2021/09/12 05:47:58;;;;;;;5.40;4.50;;;12.10;99.90;;;;;;5071524;28;20426;-76
2021/09/12 05:50:24;;;;;;;4.37;4.00;;;12.20;99.90;;;;;;5071463;28;20169;-76
2021/09/12 05:52:49;;;;;;;4.37;3.97;;;12.30;99.90;;;;;;5070678;28;20566;-76
2021/09/12 05:55:15;;;;;;;7.00;4.60;;;12.40;99.90;;;;;;5071750;28;20270;-76
2021/09/12 05:57:40;;;;;;;4.63;3.80;;;12.50;99.90;;;;;;5071457;28;20210;-77
2021/09/12 06:00:07;;;;;;;6.23;4.63;;;12.70;99.90;;;;;;5071566;28;20272;-76
2021/09/12 06:02:33;;;;;;;4.60;4.20;;;13.00;99.90;;;;;;5070129;28;20238;-76
2021/09/12 06:05:03;;;;;;;6.37;5.10;;;13.40;99.90;;;;;;5071467;28;20458;-78
2021/09/12 06:07:29;;;;;;;3.63;3.30;;;13.90;99.90;;;;;;5071148;28;20189;-76
2021/09/12 06:09:54;;;;;;;3.70;3.43;;;14.50;99.90;;;;;;5071263;28;20399;-77
2021/09/12 06:12:20;;;;;;;3.67;3.37;;;15.00;99.90;;;;;;5070663;28;20430;-77
2021/09/12 06:14:45;;;;;;;3.30;3.10;;;15.50;99.90;;;;;;5070811;28;20180;-75
2021/09/12 06:17:11;;;;;;;4.23;2.90;;;16.00;99.90;;;;;;5071178;28;20211;-77
2021/09/12 06:19:37;;;;;;;3.63;3.10;;;16.70;99.90;;;;;;5071559;28;20187;-78
2021/09/12 06:22:04;;;;;;;3.40;3.10;;;17.10;99.90;;;;;;5069630;28;20207;-78
2021/09/12 06:24:30;;;;;;;5.60;3.20;;;17.60;99.90;;;;;;5070700;28;20454;-77
2021/09/12 06:26:55;;;;;;;6.93;3.70;;;17.90;99.90;;;;;;5071330;28;20801;-77
2021/09/12 06:29:21;;;;;;;3.03;2.80;;;18.20;99.90;;;;;;5070865;28;20176;-78
2021/09/12 06:31:47;;;;;;;6.17;3.53;;;18.50;99.90;;;;;;5055018;28;20220;-77
2021/09/12 06:34:13;;;;;;;2.90;2.70;;;19.10;99.90;;;;;;5050417;28;20260;-76
2021/09/12 06:36:38;;;;;;;2.80;2.50;;;19.50;99.90;;;;;;5050828;28;20173;-77
2021/09/12 06:39:04;;;;;;;2.93;2.73;;;19.80;99.90;;;;;;5050228;28;20173;-74
2021/09/12 06:41:30;;;;;;;3.53;3.23;;;20.00;99.90;;;;;;5050260;28;20201;-77
2021/09/12 06:43:56;;;;;;;5.97;3.40;;;20.30;99.90;;;;;;5050837;28;20173;-78
2021/09/12 06:46:22;;;;;;;3.30;3.10;;;20.50;99.90;;;;;;5051224;28;20654;-78
2021/09/12 06:48:47;;;;;;;3.43;3.23;;;20.60;99.90;;;;;;5050517;28;20404;-77
2021/09/12 06:51:13;;;;;;;3.27;3.07;;;21.00;99.90;;;;;;5049785;28;20204;-76
2021/09/12 06:53:39;;;;;;;3.83;3.53;;;21.00;99.90;;;;;;5050629;28;20173;-77
2021/09/12 06:56:05;;;;;;;3.30;3.10;;;21.20;99.90;;;;;;5051356;28;20188;-79
2021/09/12 06:58:31;;;;;;;3.60;3.30;;;21.30;99.90;;;;;;5052231;28;20180;-80
2021/09/12 07:00:58;;;;;;;4.70;3.60;;;21.20;99.90;;;;;;5032881;28;20201;-79
2021/09/12 07:03:26;;;;;;;5.37;3.60;;;21.50;99.90;;;;;;5051947;28;20420;-77
2021/09/12 07:05:52;;;;;;;3.00;2.80;;;21.70;99.90;;;;;;5051906;28;20497;-78
2021/09/12 07:08:18;;;;;;;5.73;3.63;;;22.00;99.90;;;;;;5044010;28;20949;-78
2021/09/12 07:10:44;;;;;;;4.17;3.70;;;22.00;99.90;;;;;;5051301;28;20189;-79
2021/09/12 07:13:10;;;;;;;5.63;3.80;;;22.10;99.90;;;;;;5041758;28;20177;-80
2021/09/12 07:15:35;;;;;;;7.83;3.80;;;22.30;99.90;;;;;;5046881;28;20489;-77
2021/09/12 07:18:01;;;;;;;4.83;4.03;;;22.30;99.90;;;;;;5050705;28;20239;-80
2021/09/12 07:20:26;;;;;;;5.30;4.43;;;22.30;99.90;;;;;;5050954;28;20293;-77
2021/09/12 07:22:52;;;;;;;4.97;4.57;;;22.50;99.90;;;;;;5049600;28;20220;-77
2021/09/12 07:25:17;;;;;;;5.03;4.53;;;22.60;99.90;;;;;;5039512;28;20635;-79
2021/09/12 07:27:43;;;;;;;4.57;4.17;;;22.70;99.90;;;;;;5042908;28;20563;-79
2021/09/12 07:30:13;;;;;;;5.33;4.83;;;22.90;99.90;;;;;;5049695;28;20794;-79
2021/09/12 07:32:40;;;;;;;4.97;4.57;;;23.20;99.90;;;;;;5032315;28;20215;-79
2021/09/12 07:35:07;;;;;;;5.27;4.87;;;23.40;99.90;;;;;;5054308;28;20419;-79
2021/09/12 07:37:32;;;;;;;5.53;5.17;;;23.50;99.90;;;;;;5055561;28;20454;-80
2021/09/12 07:39:58;;;;;;;5.60;4.80;;;23.50;99.90;;;;;;5055158;28;21004;-79
2021/09/12 07:42:24;;;;;;;5.77;5.27;;;23.50;99.90;;;;;;5054791;28;20236;-79
2021/09/12 07:44:50;;;;;;;5.27;4.87;;;23.40;99.90;;;;;;5046850;28;20219;-78
2021/09/12 07:47:16;;;;;;;4.93;4.43;;;23.30;99.90;;;;;;5050911;28;20427;-79
2021/09/12 07:49:41;;;;;;;5.37;4.90;;;23.50;99.90;;;;;;5048591;28;20189;-78
2021/09/12 07:52:07;;;;;;;6.20;5.40;;;23.50;99.90;;;;;;5044021;28;20233;-77
2021/09/12 07:54:32;;;;;;;5.10;4.57;;;23.70;99.90;;;;;;5047738;28;20558;-78
2021/09/12 07:56:58;;;;;;;4.93;4.33;;;23.80;99.90;;;;;;5046416;28;20276;-78
2021/09/12 07:59:24;;;;;;;5.20;4.80;;;24.10;99.90;;;;;;5051119;28;20245;-80
2021/09/12 08:01:49;;;;;;;4.07;3.80;;;24.50;99.90;;;;;;5045849;28;20213;-79
2021/09/12 08:04:15;;;;;;;5.53;4.93;;;24.60;99.90;;;;;;5047031;28;20213;-81
2021/09/12 08:06:40;;;;;;;5.90;4.03;;;24.60;99.90;;;;;;5054358;28;20187;-80
2021/09/12 08:09:06;;;;;;;4.17;3.87;;;24.50;99.90;;;;;;5054398;28;20264;-82
2021/09/12 08:11:31;;;;;;;3.80;3.50;;;24.50;99.90;;;;;;5046598;28;20302;-79
2021/09/12 08:13:57;;;;;;;4.70;4.40;;;24.70;99.90;;;;;;5052405;28;20212;-79
2021/09/12 08:16:22;;;;;;;5.10;4.70;;;24.70;99.90;;;;;;5053159;28;20177;-80
2021/09/12 08:18:48;;;;;;;4.37;4.03;;;24.60;99.90;;;;;;5052896;28;20196;-80
2021/09/12 08:21:13;;;;;;;3.53;3.33;;;24.90;99.90;;;;;;5054051;28;20209;-84
2021/09/12 08:23:39;;;;;;;4.93;4.53;;;25.10;99.90;;;;;;5055462;28;20189;-82
2021/09/12 08:26:04;;;;;;;5.97;3.50;;;25.10;99.90;;;;;;5054133;28;20212;-78
2021/09/12 08:28:30;;;;;;;3.73;3.40;;;25.10;99.90;;;;;;5052909;28;20174;-78
2021/09/12 08:30:55;;;;;;;7.20;3.83;;;25.40;99.90;;;;;;5053512;28;20247;-79
2021/09/12 08:33:21;;;;;;;4.00;3.60;;;25.50;99.90;;;;;;5033327;28;20280;-76
2021/09/12 08:35:46;;;;;;;4.10;3.20;;;25.50;99.90;;;;;;5044103;28;20189;-77
2021/09/12 08:38:13;;;;;;;3.20;3.00;;;25.70;99.90;;;;;;5054412;28;20189;-78
2021/09/12 08:40:39;;;;;;;3.30;3.10;;;25.50;99.90;;;;;;5053960;28;20273;-79
2021/09/12 08:43:08;;;;;;;3.50;3.30;;;25.70;99.90;;;;;;5053428;28;20431;-80
2021/09/12 08:45:34;;;;;;;4.50;3.33;;;25.80;99.90;;;;;;5052058;28;20463;-79
2021/09/12 08:48:00;;;;;;;3.27;2.70;;;26.10;99.90;;;;;;5048928;28;20438;-79
2021/09/12 08:50:26;;;;;;;2.80;2.60;;;26.40;99.90;;;;;;5029177;28;20512;-82
2021/09/12 08:52:51;;;;;;;2.90;2.70;;;26.50;99.90;;;;;;5052382;28;20444;-80
2021/09/12 08:55:17;;;;;;;5.53;2.83;;;26.50;99.90;;;;;;5053938;28;20195;-83
2021/09/12 08:57:53;;;;;;;3.57;3.27;;;26.20;99.90;;;;;;5052978;28;20268;-80
2021/09/12 09:00:25;;;;;;;3.23;3.00;;;26.20;99.90;;;;;;5048235;28;20196;-80
2021/09/12 09:03:00;;;;;;;2.83;2.63;;;26.10;99.90;;;;;;5053541;28;20523;-80
2021/09/12 09:05:37;;;;;;;3.50;3.20;;;26.20;99.90;;;;;;5054881;28;20459;-77
2021/09/12 09:08:14;;;;;;;2.57;2.37;;;26.00;99.90;;;;;;5055814;28;20407;-80
2021/09/12 09:10:48;;;;;;;4.83;2.63;;;25.90;99.90;;;;;;5055624;28;20406;-81
2021/09/12 09:13:43;;;;;;;3.20;2.33;;;26.10;99.90;;;;;;5036214;28;20859;-80
2021/09/12 09:16:26;;;;;;;3.03;2.63;;;26.20;99.90;;;;;;5038246;28;20431;-80
2021/09/12 09:19:04;;;;;;;3.47;3.17;;;25.80;99.90;;;;;;5060486;28;20404;-82
2021/09/12 09:21:33;;;;;;;2.80;2.60;;;25.50;99.90;;;;;;5066857;28;20482;-80
2021/09/12 09:24:25;;;;;;;2.80;2.27;;;25.80;99.90;;;;;;5052616;28;20920;-79
2021/09/12 09:26:56;;;;;;;6.30;2.30;;;26.10;99.90;;;;;;5053677;28;20419;-80
2021/09/12 09:29:23;;;;;;;2.40;2.30;;;25.80;99.90;;;;;;5053813;28;20443;-79
2021/09/12 09:32:13;;;;;;;2.73;2.57;;;26.00;99.90;;;;;;5052949;28;20462;-80
2021/09/12 09:34:40;;;;;;;3.10;2.80;;;26.50;99.90;;;;;;5054326;28;20412;-79
2021/09/12 09:37:17;;;;;;;3.27;2.60;;;26.80;99.90;;;;;;5054672;28;20422;-80
2021/09/12 09:39:52;;;;;;;2.07;1.90;;;27.30;99.90;;;;;;5036037;28;20524;-79
2021/09/12 09:42:38;;;;;;;2.60;2.40;;;27.90;99.90;;;;;;5053356;28;20427;-79
2021/09/12 09:45:10;;;;;;;2.47;2.37;;;27.80;99.90;;;;;;5053834;28;20463;-81
2021/09/12 09:47:37;;;;;;;1.90;1.80;;;27.90;99.90;;;;;;5035833;28;20428;-80
2021/09/12 09:50:15;;;;;;;2.97;1.77;;;27.90;99.90;;;;;;5053946;28;20458;-80
2021/09/12 09:52:46;;;;;;;3.20;3.00;;;27.90;99.90;;;;;;5052549;28;20431;-79
2021/09/12 09:55:16;;;;;;;4.10;2.17;;;27.60;99.90;;;;;;5052829;28;20416;-79
2021/09/12 09:57:44;;;;;;;2.17;1.97;;;27.70;99.90;;;;;;5051174;28;20434;-79
2021/09/12 10:00:10;;;;;;;1.50;1.50;;;28.00;99.90;;;;;;5052763;28;20426;-80
2021/09/12 10:02:36;;;;;;;4.30;1.60;;;28.30;99.90;;;;;;5051912;28;20952;-80
2021/09/12 10:05:04;;;;;;;3.33;1.77;;;28.40;99.90;;;;;;5053557;28;20593;-81
2021/09/12 10:07:31;;;;;;;2.10;2.00;;;28.20;99.90;;;;;;5052557;28;20177;-80
2021/09/12 10:09:57;;;;;;;1.70;1.60;;;28.10;99.90;;;;;;5053428;28;20404;-80
2021/09/12 10:12:24;;;;;;;2.57;2.37;;;28.40;99.90;;;;;;5051510;28;20439;-81
2021/09/12 10:15:04;;;;;;;6.93;1.90;;;29.00;99.90;;;;;;5052476;28;20195;-81
2021/09/12 10:17:34;;;;;;;2.57;1.60;;;29.30;99.90;;;;;;5052421;28;20861;-81
2021/09/12 10:20:10;;;;;;;1.83;1.47;;;29.80;99.90;;;;;;5053097;28;20416;-84
2021/09/12 10:23:11;;;;;;;1.60;1.50;;;30.00;99.90;;;;;;5051900;28;20970;-82
2021/09/12 10:25:49;;;;;;;2.20;1.90;;;29.80;99.90;;;;;;5000057;28;20570;-79
2021/09/12 10:28:30;;;;;;;2.03;1.77;;;29.30;99.90;;;;;;5034254;28;20431;-81
2021/09/12 10:30:56;;;;;;;1.47;1.40;;;28.70;99.90;;;;;;5060513;28;20454;-80
2021/09/12 10:33:23;;;;;;;3.73;1.80;;;28.70;99.90;;;;;;5071853;28;20410;-80
2021/09/12 10:35:55;;;;;;;3.23;1.53;;;28.20;99.90;;;;;;5072465;28;20168;-80
2021/09/12 10:38:39;;;;;;;1.70;1.50;;;27.50;99.90;;;;;;5071705;28;20415;-81
2021/09/12 10:41:04;;;;;;;2.13;2.03;;;27.00;99.90;;;;;;5054355;28;20446;-80
2021/09/12 10:43:30;;;;;;;2.13;1.67;;;26.20;99.90;;;;;;5053357;28;20457;-80
2021/09/12 10:46:01;;;;;;;1.60;1.50;;;25.60;99.90;;;;;;5072156;28;20288;-80
2021/09/12 10:48:29;;;;;;;2.33;2.10;;;25.70;99.90;;;;;;5071580;28;20558;-78
2021/09/12 10:50:55;;;;;;;1.93;1.60;;;26.00;99.90;;;;;;5072789;28;20446;-82
2021/09/12 10:53:42;;;;;;;1.57;1.47;;;26.60;99.90;;;;;;5071895;28;20413;-78
2021/09/12 10:56:08;;;;;;;1.43;1.33;;;27.00;99.90;;;;;;5074293;28;20418;-80
2021/09/12 10:58:34;;;;;;;1.50;1.40;;;27.10;99.90;;;;;;5073755;28;20421;-79
2021/09/12 11:01:01;;;;;;;2.10;1.83;;;27.00;99.90;;;;;;5074938;28;20430;-80
2021/09/12 11:03:28;;;;;;;2.70;2.37;;;27.30;99.90;;;;;;5053294;28;20255;-79
2021/09/12 11:05:53;;;;;;;2.20;2.10;;;27.20;99.90;;;;;;5052722;28;20541;-80
2021/09/12 11:08:19;;;;;;;2.50;1.53;;;27.10;99.90;;;;;;5052309;28;20451;-79
2021/09/12 11:10:49;;;;;;;2.40;1.83;;;27.40;99.90;;;;;;5051586;28;20224;-81
2021/09/12 11:13:24;;;;;;;4.23;2.30;;;27.10;99.90;;;;;;5051492;28;20186;-80
2021/09/12 11:15:51;;;;;;;3.27;2.17;;;26.50;99.90;;;;;;5051386;28;20411;-79
2021/09/12 11:18:17;;;;;;;4.07;1.70;;;26.40;99.90;;;;;;5051762;28;20565;-79
2021/09/12 11:20:45;;;;;;;3.23;1.43;;;26.70;99.90;;;;;;5051398;28;20475;-79
2021/09/12 11:23:25;;;;;;;1.87;1.77;;;26.90;99.90;;;;;;5051619;28;20178;-79
2021/09/12 11:25:57;;;;;;;2.00;1.90;;;26.80;99.90;;;;;;5051494;28;20809;-79
2021/09/12 11:28:27;;;;;;;1.60;1.50;;;26.00;99.90;;;;;;5051111;28;20430;-80
2021/09/12 11:30:53;;;;;;;2.07;1.97;;;25.60;99.90;;;;;;5051543;28;20560;-79
2021/09/12 11:33:19;;;;;;;1.73;1.63;;;25.40;99.90;;;;;;5051710;28;20860;-82
2021/09/12 11:36:01;;;;;;;2.17;1.97;;;25.80;99.90;;;;;;5050906;28;20319;-81
2021/09/12 11:38:28;;;;;;;2.80;1.73;;;26.10;99.90;;;;;;5050811;28;20703;-78
2021/09/12 11:40:58;;;;;;;2.03;1.63;;;26.20;99.90;;;;;;5050709;28;20446;-79
2021/09/12 11:43:25;;;;;;;1.53;1.43;;;26.50;99.90;;;;;;5049562;28;20435;-78
2021/09/12 11:46:09;;;;;;;2.97;1.60;;;26.70;99.90;;;;;;5050466;28;20463;-78
2021/09/12 11:48:37;;;;;;;2.43;1.83;;;26.60;99.90;;;;;;5050846;28;20416;-78
2021/09/12 11:51:02;;;;;;;2.40;1.80;;;26.70;99.90;;;;;;5051146;28;20823;-79
2021/09/12 11:53:28;;;;;;;3.17;2.03;;;26.60;99.90;;;;;;5051393;28;20404;-78
2021/09/12 11:55:54;;;;;;;2.50;1.43;;;26.40;99.90;;;;;;5050863;28;20178;-78
2021/09/12 11:58:20;;;;;;;1.77;1.47;;;26.50;99.90;;;;;;5050309;28;20182;-80
2021/09/12 12:00:48;;;;;;;1.23;1.13;;;26.40;99.90;;;;;;5050301;28;20777;-76
2021/09/12 12:03:16;;;;;;;1.83;1.73;;;26.50;99.90;;;;;;5049459;28;20510;-79
2021/09/12 12:05:43;;;;;;;1.63;1.53;;;26.10;99.90;;;;;;5050697;28;20495;-78
2021/09/12 12:08:13;;;;;;;2.00;1.60;;;26.20;99.90;;;;;;5050400;28;20408;-78
2021/09/12 12:10:39;;;;;;;1.73;1.63;;;26.20;99.90;;;;;;5049881;28;20494;-79
2021/09/12 12:13:06;;;;;;;1.70;1.47;;;26.30;99.90;;;;;;5049918;28;20538;-80
2021/09/12 12:15:33;;;;;;;1.87;1.73;;;26.50;99.90;;;;;;5048534;28;20196;-80
2021/09/12 12:17:59;;;;;;;2.27;1.50;;;26.60;99.90;;;;;;5032240;28;20797;-79
2021/09/12 12:20:31;;;;;;;1.80;1.70;;;26.70;99.90;;;;;;5051968;28;20912;-80
2021/09/12 12:23:12;;;;;;;3.03;1.83;;;26.70;99.90;;;;;;5053628;28;20412;-79
2021/09/12 12:25:38;;;;;;;2.83;1.70;;;26.90;99.90;;;;;;5053687;28;20514;-79
2021/09/12 12:28:20;;;;;;;3.13;1.50;;;26.80;99.90;;;;;;5053661;28;20407;-80
2021/09/12 12:31:16;;;;;;;1.93;1.83;;;26.70;99.90;;;;;;5057537;28;20211;-77
2021/09/12 12:33:44;;;;;;;1.43;1.30;;;26.80;99.90;;;;;;5053313;28;20510;-76
2021/09/12 12:36:12;;;;;;;2.40;1.57;;;26.60;99.90;;;;;;5053115;28;20550;-82
2021/09/12 12:38:38;;;;;;;1.40;1.30;;;26.70;99.90;;;;;;5053454;28;20414;-80
2021/09/12 12:41:12;;;;;;;1.93;1.80;;;26.70;99.90;;;;;;5053629;28;20435;-79
2021/09/12 12:43:39;;;;;;;1.13;1.13;;;26.50;99.90;;;;;;5052895;28;20412;-80
2021/09/12 12:46:04;;;;;;;1.43;1.33;;;26.30;99.90;;;;;;5035673;28;20533;-80
2021/09/12 12:48:33;;;;;;;1.43;1.33;;;25.80;99.90;;;;;;5053043;28;20937;-80
2021/09/12 12:51:18;;;;;;;1.53;1.43;;;25.60;99.90;;;;;;5052964;28;20276;-80
2021/09/12 12:53:46;;;;;;;1.63;1.53;;;25.60;99.90;;;;;;5053147;28;20404;-79
2021/09/12 12:56:16;;;;;;;1.87;1.60;;;25.70;99.90;;;;;;5053022;28;20462;-81
2021/09/12 12:58:44;;;;;;;1.40;1.30;;;25.70;99.90;;;;;;5053008;28;20546;-79
2021/09/12 13:01:11;;;;;;;1.53;1.37;;;25.40;99.90;;;;;;5052911;28;20825;-81
2021/09/12 13:03:37;;;;;;;1.73;1.63;;;25.40;99.90;;;;;;5052895;28;20419;-79
2021/09/12 13:06:10;;;;;;;1.53;1.43;;;25.30;99.90;;;;;;5053151;28;20455;-79
2021/09/12 13:08:36;;;;;;;1.87;1.57;;;25.30;99.90;;;;;;5052733;28;20452;-79
2021/09/12 13:11:02;;;;;;;1.47;1.37;;;25.20;99.90;;;;;;5052882;28;20439;-79
2021/09/12 13:13:28;;;;;;;1.70;1.60;;;25.30;99.90;;;;;;5051548;28;20408;-78
2021/09/12 13:15:54;;;;;;;1.93;1.20;;;25.40;99.90;;;;;;5052930;28;20185;-79
2021/09/12 13:18:20;;;;;;;1.33;1.23;;;25.40;99.90;;;;;;5052713;28;20177;-79
2021/09/12 13:20:47;;;;;;;2.43;1.53;;;25.20;99.90;;;;;;5052889;28;20188;-78
2021/09/12 13:23:12;;;;;;;1.43;1.17;;;25.10;99.90;;;;;;5051436;28;20928;-79
2021/09/12 13:25:38;;;;;;;2.70;1.80;;;25.20;99.90;;;;;;5052574;28;20459;-79
2021/09/12 13:28:04;;;;;;;6.87;2.07;;;25.20;99.90;;;;;;5052552;28;20185;-79
2021/09/12 13:30:30;;;;;;;2.57;1.50;;;25.40;99.90;;;;;;5056555;28;20703;-78
2021/09/12 13:32:56;;;;;;;1.90;1.40;;;25.20;99.90;;;;;;5071376;28;20559;-79
2021/09/12 13:35:21;;;;;;;1.43;1.33;;;25.10;99.90;;;;;;5072276;28;20430;-80
2021/09/12 13:37:47;;;;;;;1.67;1.57;;;25.20;99.90;;;;;;5072150;28;20195;-79
2021/09/12 13:40:14;;;;;;;1.67;1.57;;;25.20;99.90;;;;;;5072622;28;20180;-79
2021/09/12 13:42:43;;;;;;;1.80;1.70;;;25.00;99.90;;;;;;5071821;28;20663;-79
2021/09/12 13:45:10;;;;;;;7.47;1.77;;;24.70;99.90;;;;;;5071723;28;20458;-79
2021/09/12 13:47:36;;;;;;;1.83;1.73;;;24.60;99.90;;;;;;5072077;28;20434;-81
2021/09/12 13:50:02;;;;;;;2.20;1.67;;;24.40;99.90;;;;;;5072118;28;20895;-79
2021/09/12 13:52:28;;;;;;;1.87;1.73;;;24.40;99.90;;;;;;5070661;28;20196;-78
2021/09/12 13:54:54;;;;;;;1.87;1.70;;;24.40;99.90;;;;;;5072223;28;20831;-79
2021/09/12 13:57:19;;;;;;;1.50;1.40;;;24.20;99.90;;;;;;5071949;28;20418;-79
2021/09/12 13:59:45;;;;;;;1.70;1.60;;;24.20;99.90;;;;;;5072080;28;20208;-79
2021/09/12 14:02:10;;;;;;;2.10;1.47;;;24.20;99.90;;;;;;5071696;28;20257;-79
2021/09/12 14:04:39;;;;;;;1.40;1.30;;;24.20;99.90;;;;;;5071823;28;20244;-79
2021/09/12 14:07:11;;;;;;;1.67;1.60;;;24.20;99.90;;;;;;5071445;28;20665;-79
2021/09/12 14:09:37;;;;;;;2.00;1.90;;;24.20;99.90;;;;;;5072238;28;20453;-80
2021/09/12 14:12:04;;;;;;;2.30;1.53;;;24.20;99.90;;;;;;5071582;28;20915;-81
2021/09/12 14:14:29;;;;;;;3.50;1.50;;;24.20;99.90;;;;;;5071831;28;20898;-80
2021/09/12 14:16:55;;;;;;;1.83;1.73;;;24.10;99.90;;;;;;5071615;28;20502;-80
2021/09/12 14:19:20;;;;;;;2.03;1.93;;;23.90;99.90;;;;;;5071250;28;20188;-80
2021/09/12 14:21:46;;;;;;;1.77;1.67;;;23.80;99.90;;;;;;5071160;28;20666;-78
2021/09/12 14:24:11;;;;;;;1.67;1.57;;;23.60;99.90;;;;;;5071242;28;20177;-79
2021/09/12 14:26:39;;;;;;;3.70;3.23;;;23.60;99.90;;;;;;5071128;28;20220;-79
2021/09/12 14:29:05;;;;;;;5.03;4.23;;;23.70;99.90;;;;;;5071199;28;20173;-79
2021/09/12 14:31:30;;;;;;;1.60;1.27;;;23.90;99.90;;;;;;5057967;28;21017;-80
2021/09/12 14:33:56;;;;;;;4.10;1.67;;;24.00;99.90;;;;;;5051189;28;20183;-80
2021/09/12 14:36:21;;;;;;;1.63;1.53;;;24.10;99.90;;;;;;5051173;28;20631;-79
2021/09/12 14:38:47;;;;;;;3.53;1.33;;;24.20;99.90;;;;;;5050699;28;20223;-78
2021/09/12 14:41:12;;;;;;;1.27;1.17;;;24.30;99.90;;;;;;5051406;28;20656;-80
2021/09/12 14:43:38;;;;;;;2.30;1.43;;;24.20;99.90;;;;;;5049976;28;20181;-79
2021/09/12 14:46:04;;;;;;;1.60;1.50;;;24.20;99.90;;;;;;5050651;28;20211;-79
2021/09/12 14:48:30;;;;;;;1.30;1.20;;;24.30;99.90;;;;;;5050629;28;20264;-79
2021/09/12 14:50:55;;;;;;;1.50;1.40;;;24.30;99.90;;;;;;5050096;28;20999;-79
2021/09/12 14:53:21;;;;;;;1.57;1.47;;;24.20;99.90;;;;;;5050285;28;20169;-79
2021/09/12 14:55:46;;;;;;;1.87;1.77;;;24.20;99.90;;;;;;5051008;28;20200;-79
2021/09/12 14:58:12;;;;;;;0.90;0.90;;;24.20;99.90;;;;;;5050910;28;20273;-80
2021/09/12 15:00:38;;;;;;;1.57;1.47;;;24.20;99.90;;;;;;5050912;28;20191;-79
2021/09/12 15:03:03;;;;;;;1.90;1.80;;;24.10;99.90;;;;;;5049664;28;20546;-79
2021/09/12 15:05:29;;;;;;;2.53;1.73;;;24.20;99.90;;;;;;5050248;28;20262;-79
2021/09/12 15:07:55;;;;;;;2.60;1.30;;;24.10;99.90;;;;;;5050512;28;20268;-79
2021/09/12 15:10:21;;;;;;;2.63;1.50;;;24.00;99.90;;;;;;5050349;28;20204;-79
2021/09/12 15:12:49;;;;;;;1.50;1.40;;;23.90;99.90;;;;;;5049068;28;20228;-78
2021/09/12 15:15:15;;;;;;;1.73;1.63;;;23.80;99.90;;;;;;5050623;28;20412;-79
2021/09/12 15:17:41;;;;;;;1.10;1.10;;;23.70;99.90;;;;;;5050481;28;20447;-79
2021/09/12 15:20:08;;;;;;;1.40;1.40;;;23.60;99.90;;;;;;5049890;28;20513;-78
2021/09/12 15:22:34;;;;;;;2.60;1.90;;;23.60;99.90;;;;;;5049424;28;20447;-79
2021/09/12 15:24:59;;;;;;;1.77;1.67;;;23.60;99.90;;;;;;5050601;28;20463;-79
2021/09/12 15:27:26;;;;;;;3.23;1.40;;;23.50;99.90;;;;;;5050321;28;20179;-79
2021/09/12 15:29:51;;;;;;;2.50;2.30;;;23.50;99.90;;;;;;5050522;28;20647;-79
2021/09/12 15:32:17;;;;;;;1.63;1.53;;;23.50;99.90;;;;;;5068260;28;20488;-78
2021/09/12 15:34:43;;;;;;;1.70;1.50;;;23.40;99.90;;;;;;5070590;28;20700;-79
2021/09/12 15:37:09;;;;;;;1.43;1.33;;;23.30;99.90;;;;;;5070386;28;20179;-79
2021/09/12 15:39:36;;;;;;;2.67;1.60;;;23.20;99.90;;;;;;5070116;28;20183;-80
2021/09/12 15:42:03;;;;;;;2.10;1.70;;;23.20;99.90;;;;;;5069751;28;20435;-79
2021/09/12 15:44:34;;;;;;;1.97;1.77;;;23.10;99.90;;;;;;5070064;28;20490;-77
2021/09/12 15:47:00;;;;;;;1.97;1.57;;;23.00;99.90;;;;;;5070327;28;20415;-77
2021/09/12 15:49:26;;;;;;;3.97;1.60;;;23.00;99.90;;;;;;5069907;28;20498;-74
2021/09/12 15:51:52;;;;;;;1.70;1.60;;;23.00;99.90;;;;;;5070130;28;20505;-76
2021/09/12 15:54:19;;;;;;;2.10;2.00;;;23.00;99.90;;;;;;5071815;28;20467;-77
2021/09/12 15:56:45;;;;;;;2.10;1.90;;;23.00;99.90;;;;;;5074292;28;20510;-76
2021/09/12 15:59:10;;;;;;;1.73;1.63;;;22.90;99.90;;;;;;5073578;28;20422;-77
2021/09/12 16:01:36;;;;;;;1.77;1.67;;;22.90;99.90;;;;;;5074002;28;20439;-78
2021/09/12 16:04:02;;;;;;;1.70;1.60;;;22.80;99.90;;;;;;5073292;28;20473;-77
2021/09/12 16:06:27;;;;;;;1.63;1.43;;;22.80;99.90;;;;;;5073785;28;20181;-77
2021/09/12 16:08:53;;;;;;;1.60;1.30;;;22.70;99.90;;;;;;5073619;28;20177;-77
2021/09/12 16:11:21;;;;;;;5.13;1.60;;;22.70;99.90;;;;;;5073769;28;20333;-76
2021/09/12 16:13:47;;;;;;;3.90;1.57;;;22.60;99.90;;;;;;5072777;28;20768;-74
2021/09/12 16:16:12;;;;;;;1.73;1.63;;;22.60;99.90;;;;;;5073489;28;20509;-76
2021/09/12 16:18:38;;;;;;;1.53;1.43;;;22.60;99.90;;;;;;5073296;28;20964;-73
2021/09/12 16:21:07;;;;;;;1.70;1.60;;;22.60;99.90;;;;;;5073641;28;20200;-75
2021/09/12 16:23:32;;;;;;;1.70;1.60;;;22.50;99.90;;;;;;5072712;28;20173;-75
2021/09/12 16:25:58;;;;;;;1.37;1.27;;;22.50;99.90;;;;;;5073567;28;20997;-75
2021/09/12 16:28:23;;;;;;;1.60;1.37;;;22.40;99.90;;;;;;5073546;28;20315;-75
2021/09/12 16:30:49;;;;;;;2.90;1.33;;;22.40;99.90;;;;;;5065415;28;20666;-75
2021/09/12 16:33:15;;;;;;;1.80;1.70;;;22.30;99.90;;;;;;5052859;28;20216;-77
2021/09/12 16:35:41;;;;;;;1.93;1.60;;;22.20;99.90;;;;;;5052636;28;20235;-76
2021/09/12 16:38:06;;;;;;;4.03;1.70;;;22.20;99.90;;;;;;5052999;28;20561;-76
2021/09/12 16:40:38;;;;;;;1.53;1.43;;;22.20;99.90;;;;;;5052985;28;20197;-76
2021/09/12 16:43:03;;;;;;;1.80;1.70;;;22.10;99.90;;;;;;5052784;28;20181;-77
2021/09/12 16:45:33;;;;;;;1.50;1.40;;;22.00;99.90;;;;;;5052890;28;20889;-78
2021/09/12 16:47:58;;;;;;;2.63;1.80;;;21.90;99.90;;;;;;5052675;28;20575;-77
2021/09/12 16:50:24;;;;;;;1.43;1.33;;;21.90;99.90;;;;;;5053064;28;20457;-77
2021/09/12 16:52:50;;;;;;;2.00;1.50;;;21.90;99.90;;;;;;5052372;28;20205;-77
2021/09/12 16:55:15;;;;;;;2.13;2.03;;;21.80;99.90;;;;;;5052840;28;20181;-77
2021/09/12 16:57:41;;;;;;;1.70;1.60;;;21.70;99.90;;;;;;5053064;28;20238;-76
2021/09/12 17:00:07;;;;;;;2.80;1.77;;;21.70;99.90;;;;;;5052022;28;20181;-76
2021/09/12 17:02:33;;;;;;;1.67;1.57;;;21.60;99.90;;;;;;5052408;28;20208;-76
2021/09/12 17:04:59;;;;;;;2.10;1.93;;;21.60;99.90;;;;;;5052990;28;20452;-77
2021/09/12 17:07:26;;;;;;;4.97;2.60;;;21.50;99.90;;;;;;5052389;28;20316;-77
2021/09/12 17:09:52;;;;;;;2.90;1.50;;;21.40;99.90;;;;;;5051809;28;20488;-76
2021/09/12 17:12:17;;;;;;;2.20;2.00;;;21.30;99.90;;;;;;5051666;28;20841;-76
2021/09/12 17:14:43;;;;;;;2.33;2.13;;;21.20;99.90;;;;;;5052626;28;20404;-77
2021/09/12 17:17:08;;;;;;;2.37;2.17;;;21.10;99.90;;;;;;5052533;28;20201;-77
2021/09/12 17:19:34;;;;;;;3.60;2.67;;;21.00;99.90;;;;;;5051817;28;20181;-77
2021/09/12 17:22:00;;;;;;;4.23;3.30;;;20.90;99.90;;;;;;5051879;28;20224;-76